createdAt,value
2022-09-15T00:01:28.390Z,11.90
2022-09-15T00:03:56.780Z,10.90
2022-09-15T00:06:25.156Z,6.50
2022-09-15T00:08:53.684Z,14.97
2022-09-15T00:11:25.704Z,14.90
2022-09-15T00:13:55.449Z,16.67
2022-09-15T00:16:26.252Z,7.97
2022-09-15T00:18:55.043Z,10.10
2022-09-15T00:21:26.287Z,8.90
2022-09-15T00:23:55.220Z,6.27
2022-09-15T00:26:27.336Z,14.30
2022-09-15T00:28:57.200Z,11.13
2022-09-15T00:31:28.123Z,9.83
2022-09-15T00:33:58.468Z,12.93
2022-09-15T00:36:27.895Z,11.47
2022-09-15T00:38:57.020Z,10.43
2022-09-15T00:41:26.884Z,10.13
2022-09-15T00:43:57.910Z,9.47
2022-09-15T00:46:29.675Z,10.03
2022-09-15T00:49:03.149Z,5.77
2022-09-15T00:51:39.579Z,5.97
2022-09-15T00:54:11.412Z,6.70
2022-09-15T00:56:43.135Z,7.57
2022-09-15T00:59:15.929Z,7.30
2022-09-15T01:01:47.256Z,11.13
2022-09-15T01:04:16.842Z,10.17
2022-09-15T01:06:49.258Z,14.80
2022-09-15T01:09:22.835Z,15.23
2022-09-15T01:11:52.514Z,5.67
2022-09-15T01:14:20.858Z,10.00
2022-09-15T01:16:57.936Z,9.40
2022-09-15T01:20:17.188Z,7.50
2022-09-15T01:22:57.645Z,8.33
2022-09-15T01:25:41.462Z,10.57
2022-09-15T01:28:35.007Z,9.80
2022-09-15T01:31:07.926Z,11.17
2022-09-15T01:33:41.238Z,13.37
2022-09-15T01:36:15.225Z,6.63
2022-09-15T01:38:56.665Z,9.30
2022-09-15T01:41:28.778Z,10.97
2022-09-15T01:44:03.567Z,9.13
2022-09-15T01:46:36.735Z,11.87
2022-09-15T01:49:07.995Z,8.43
2022-09-15T01:51:37.982Z,9.40
2022-09-15T01:54:07.627Z,15.07
2022-09-15T01:56:38.040Z,7.10
2022-09-15T01:59:06.999Z,9.50
2022-09-15T02:01:43.227Z,9.20
2022-09-15T02:04:18.048Z,7.47
2022-09-15T02:06:53.382Z,9.87
2022-09-15T02:09:25.584Z,12.13
2022-09-15T02:12:02.257Z,7.87
2022-09-15T02:14:48.199Z,14.07
2022-09-15T02:17:20.606Z,8.07
2022-09-15T02:19:52.005Z,5.93
2022-09-15T02:22:24.996Z,8.23
2022-09-15T02:24:58.987Z,9.03
2022-09-15T02:27:31.049Z,6.87
2022-09-15T02:30:06.007Z,13.47
2022-09-15T02:32:38.425Z,8.70
2022-09-15T02:35:10.054Z,8.13
2022-09-15T02:37:39.132Z,8.17
2022-09-15T02:40:08.404Z,6.97
2022-09-15T02:42:37.209Z,11.17
2022-09-15T02:45:06.323Z,11.90
2022-09-15T02:47:36.075Z,5.57
2022-09-15T02:50:04.650Z,13.40
2022-09-15T02:52:33.062Z,12.83
2022-09-15T02:55:01.351Z,7.00
2022-09-15T02:57:29.689Z,10.00
2022-09-15T03:00:16.348Z,7.87
2022-09-15T03:02:50.201Z,14.33
2022-09-15T03:05:20.655Z,5.00
2022-09-15T03:07:49.262Z,10.60
2022-09-15T03:10:17.747Z,9.90
2022-09-15T03:12:48.195Z,8.67
2022-09-15T03:15:18.732Z,10.17
2022-09-15T03:17:49.317Z,10.50
2022-09-15T03:20:20.843Z,8.30
2022-09-15T03:22:49.915Z,7.13
2022-09-15T03:25:18.955Z,10.00
2022-09-15T03:27:47.279Z,10.10
2022-09-15T03:30:16.278Z,6.90
2022-09-15T03:32:44.816Z,7.60
2022-09-15T03:35:14.538Z,4.00
2022-09-15T03:37:42.919Z,6.20
2022-09-15T03:40:11.981Z,14.97
2022-09-15T03:42:40.249Z,6.70
2022-09-15T03:45:09.649Z,5.40
2022-09-15T03:47:38.008Z,11.30
2022-09-15T03:50:07.584Z,5.27
2022-09-15T03:52:37.314Z,9.80
2022-09-15T03:55:06.189Z,8.43
2022-09-15T03:57:34.429Z,12.20
2022-09-15T04:00:03.177Z,10.30
2022-09-15T04:02:32.964Z,10.33
2022-09-15T04:05:02.923Z,9.87
2022-09-15T04:07:31.499Z,4.30
2022-09-15T04:10:01.145Z,10.40
2022-09-15T04:12:32.532Z,7.27
2022-09-15T04:15:01.067Z,9.43
2022-09-15T04:17:29.440Z,6.33
2022-09-15T04:19:57.735Z,10.23
2022-09-15T04:22:26.131Z,6.93
2022-09-15T04:24:54.583Z,8.47
2022-09-15T04:27:24.435Z,17.57
2022-09-15T04:29:53.083Z,14.20
2022-09-15T04:32:22.065Z,8.47
2022-09-15T04:34:50.357Z,12.07
2022-09-15T04:37:19.019Z,6.10
2022-09-15T04:39:47.880Z,10.27
2022-09-15T04:42:16.546Z,18.03
2022-09-15T04:44:46.200Z,12.13
2022-09-15T04:47:14.443Z,12.70
2022-09-15T04:49:43.290Z,8.17
2022-09-15T04:52:11.568Z,11.03
2022-09-15T04:54:39.874Z,10.03
2022-09-15T04:57:09.551Z,8.23
2022-09-15T04:59:37.861Z,12.57
2022-09-15T05:02:07.641Z,7.93
2022-09-15T05:04:36.016Z,9.37
2022-09-15T05:07:04.354Z,14.67
2022-09-15T05:09:32.671Z,12.30
2022-09-15T05:12:00.962Z,11.27
2022-09-15T05:14:30.049Z,8.00
2022-09-15T05:16:58.297Z,10.57
2022-09-15T05:19:27.961Z,13.10
2022-09-15T05:21:56.216Z,11.20
2022-09-15T05:24:24.606Z,13.60
2022-09-15T05:26:52.848Z,19.13
2022-09-15T05:29:21.117Z,14.07
2022-09-15T05:31:49.506Z,14.80
2022-09-15T05:34:17.897Z,11.00
2022-09-15T05:36:47.629Z,13.60
2022-09-15T05:39:16.096Z,17.23
2022-09-15T05:41:44.844Z,15.40
2022-09-15T05:44:13.199Z,16.33
2022-09-15T05:46:41.702Z,15.33
2022-09-15T05:49:11.720Z,11.80
2022-09-15T05:51:40.195Z,8.63
2022-09-15T05:54:09.941Z,10.27
2022-09-15T05:56:38.425Z,8.53
2022-09-15T05:59:06.851Z,12.23
2022-09-15T06:01:36.386Z,14.90
2022-09-15T06:04:04.930Z,10.53
2022-09-15T06:06:33.904Z,12.23
2022-09-15T06:09:02.699Z,16.00
2022-09-15T06:11:34.572Z,16.00
2022-09-15T06:14:04.160Z,9.63
2022-09-15T06:16:34.721Z,8.23
2022-09-15T06:19:03.790Z,13.60
2022-09-15T06:21:33.113Z,8.43
2022-09-15T06:24:03.366Z,12.00
2022-09-15T06:26:33.151Z,11.47
2022-09-15T06:29:03.129Z,10.60
2022-09-15T06:31:33.704Z,14.97
2022-09-15T06:34:03.755Z,7.00
2022-09-15T06:36:32.921Z,9.00
2022-09-15T06:39:01.561Z,18.87
2022-09-15T06:41:47.002Z,8.83
2022-09-15T06:44:20.843Z,13.77
2022-09-15T06:46:49.653Z,14.40
2022-09-15T06:49:18.407Z,10.07
2022-09-15T06:51:46.979Z,12.97
2022-09-15T06:54:16.205Z,10.43
2022-09-15T06:56:44.910Z,11.57
2022-09-15T06:59:14.109Z,15.10
2022-09-15T07:01:44.177Z,13.20
2022-09-15T07:04:12.696Z,13.80
2022-09-15T07:06:41.521Z,18.57
2022-09-15T07:09:11.692Z,11.10
2022-09-15T07:11:40.049Z,8.37
2022-09-15T07:14:08.420Z,10.63
2022-09-15T07:16:36.889Z,13.60
2022-09-15T07:19:06.603Z,13.57
2022-09-15T07:21:35.528Z,11.73
2022-09-15T07:24:07.227Z,15.67
2022-09-15T07:26:36.380Z,20.73
2022-09-15T07:29:07.371Z,14.13
2022-09-15T07:31:37.865Z,18.67
2022-09-15T07:34:08.249Z,17.53
2022-09-15T07:36:36.717Z,11.73
2022-09-15T07:39:06.233Z,18.80
2022-09-15T07:41:34.972Z,19.33
2022-09-15T07:44:03.932Z,17.43
2022-09-15T07:46:33.386Z,19.53
2022-09-15T07:49:03.461Z,14.57
2022-09-15T07:51:33.364Z,13.30
2022-09-15T07:54:01.764Z,17.23
2022-09-15T07:56:30.335Z,9.23
2022-09-15T07:58:59.244Z,16.03
2022-09-15T08:01:27.600Z,10.70
2022-09-15T08:03:56.147Z,14.93
2022-09-15T08:06:25.819Z,15.17
2022-09-15T08:09:00.517Z,18.83
2022-09-15T08:11:29.923Z,11.43
2022-09-15T08:14:01.248Z,17.37
2022-09-15T08:16:29.703Z,16.20
2022-09-15T08:18:58.058Z,10.67
2022-09-15T08:21:27.614Z,19.20
2022-09-15T08:23:59.084Z,12.57
2022-09-15T08:26:28.543Z,12.97
2022-09-15T08:28:57.829Z,9.10
2022-09-15T08:31:26.479Z,17.07
2022-09-15T08:33:56.307Z,14.80
2022-09-15T08:36:27.713Z,12.97
2022-09-15T08:38:57.775Z,20.53
2022-09-15T08:41:30.314Z,9.53
2022-09-15T08:44:05.767Z,16.00
2022-09-15T08:46:38.480Z,18.13
2022-09-15T08:49:14.315Z,15.73
2022-09-15T08:51:47.493Z,12.63
2022-09-15T08:54:22.427Z,15.33
2022-09-15T08:56:51.397Z,15.90
2022-09-15T08:59:21.744Z,17.80
2022-09-15T09:02:00.814Z,13.67
2022-09-15T09:04:54.765Z,19.33
2022-09-15T09:07:51.166Z,19.77
2022-09-15T09:10:26.733Z,14.43
2022-09-15T09:13:11.332Z,15.30
2022-09-15T09:15:49.110Z,27.87
2022-09-15T09:18:47.124Z,15.13
2022-09-15T09:21:23.100Z,13.67
2022-09-15T09:23:56.895Z,19.50
2022-09-15T09:26:28.928Z,14.13
2022-09-15T09:29:00.869Z,13.57
2022-09-15T09:31:30.468Z,10.00
2022-09-15T09:34:06.300Z,19.80
2022-09-15T09:36:34.916Z,17.13
2022-09-15T09:39:04.341Z,24.40
2022-09-15T09:41:38.955Z,15.40
2022-09-15T09:44:13.676Z,24.73
2022-09-15T09:46:42.404Z,20.47
2022-09-15T09:49:16.874Z,27.20
2022-09-15T09:51:52.966Z,34.97
2022-09-15T09:54:25.064Z,20.80
2022-09-15T09:56:56.221Z,28.03
2022-09-15T09:59:36.399Z,28.17
2022-09-15T10:02:16.760Z,48.13
2022-09-15T10:04:46.299Z,49.63
2022-09-15T10:07:17.529Z,67.33
2022-09-15T10:09:54.905Z,67.30
2022-09-15T10:12:30.417Z,52.30
2022-09-15T10:15:02.315Z,63.73
2022-09-15T10:17:42.420Z,64.30
2022-09-15T10:20:28.339Z,66.63
2022-09-15T10:23:04.869Z,63.87
2022-09-15T10:25:57.490Z,63.60
2022-09-15T10:28:27.443Z,72.67
2022-09-15T10:31:05.009Z,65.63
2022-09-15T10:33:35.144Z,58.73
2022-09-15T10:36:06.920Z,76.50
2022-09-15T10:38:42.963Z,75.70
2022-09-15T10:41:22.546Z,58.90
2022-09-15T10:44:27.410Z,50.13
2022-09-15T10:47:06.128Z,28.03
2022-09-15T10:49:53.497Z,21.17
2022-09-15T10:52:32.980Z,19.37
2022-09-15T10:55:24.606Z,35.03
2022-09-15T10:58:21.364Z,96.33
2022-09-15T11:01:01.991Z,96.57
2022-09-15T11:03:55.584Z,87.93
2022-09-15T11:06:29.811Z,69.63
2022-09-15T11:09:17.632Z,74.10
2022-09-15T11:11:53.815Z,80.13
2022-09-15T11:14:41.848Z,63.10
2022-09-15T11:17:23.561Z,79.67
2022-09-15T11:20:05.169Z,57.50
2022-09-15T11:22:36.420Z,56.93
2022-09-15T11:25:13.695Z,60.10
2022-09-15T11:27:46.633Z,54.20
2022-09-15T11:30:20.127Z,60.13
2022-09-15T11:32:58.117Z,54.63
2022-09-15T11:35:35.483Z,50.10
2022-09-15T11:38:15.087Z,51.27
2022-09-15T11:40:48.805Z,50.53
2022-09-15T11:43:23.269Z,43.83
2022-09-15T11:45:55.692Z,49.67
2022-09-15T11:48:31.200Z,28.70
2022-09-15T11:51:03.183Z,48.03
2022-09-15T11:53:39.415Z,35.83
2022-09-15T11:56:16.900Z,37.63
2022-09-15T11:59:00.243Z,52.73
2022-09-15T12:01:33.219Z,44.70
2022-09-15T12:04:06.524Z,47.10
2022-09-15T12:06:44.798Z,53.30
2022-09-15T12:09:16.237Z,58.23
2022-09-15T12:11:46.422Z,49.97
2022-09-15T12:14:20.675Z,61.80
2022-09-15T12:16:49.334Z,59.20
2022-09-15T12:19:27.080Z,44.73
2022-09-15T12:21:59.854Z,27.67
2022-09-15T12:24:34.885Z,30.07
2022-09-15T12:27:03.868Z,39.17
2022-09-15T12:29:49.807Z,35.60
2022-09-15T12:32:24.446Z,27.40
2022-09-15T12:35:02.585Z,23.10
2022-09-15T12:37:37.530Z,25.77
2022-09-15T12:40:08.615Z,21.30
2022-09-15T12:42:38.392Z,17.33
2022-09-15T12:45:21.776Z,18.03
2022-09-15T12:47:54.771Z,25.60
2022-09-15T12:50:28.608Z,24.77
2022-09-15T12:53:01.110Z,22.00
2022-09-15T12:55:33.256Z,17.37
2022-09-15T12:58:07.312Z,14.40
2022-09-15T13:00:45.613Z,16.30
2022-09-15T13:03:53.954Z,15.40
2022-09-15T13:06:24.973Z,24.20
2022-09-15T13:09:13.187Z,29.33
2022-09-15T13:14:27.873Z,28.00
2022-09-15T13:17:00.150Z,24.80
2022-09-15T13:19:38.815Z,24.73
2022-09-15T13:22:18.395Z,20.87
2022-09-15T13:24:51.292Z,47.73
2022-09-15T13:27:22.521Z,32.77
2022-09-15T13:29:55.880Z,45.63
2022-09-15T13:32:36.621Z,44.97
2022-09-15T13:35:34.837Z,41.23
2022-09-15T13:38:36.966Z,53.53
2022-09-15T13:41:37.267Z,47.60
2022-09-15T13:44:35.920Z,42.27
2022-09-15T13:47:24.388Z,53.70
2022-09-15T13:49:58.807Z,37.13
2022-09-15T13:53:09.825Z,41.47
2022-09-15T13:55:41.924Z,43.93
2022-09-15T14:01:06.947Z,19.07
2022-09-15T14:03:41.724Z,44.60
2022-09-15T14:06:20.635Z,29.43
2022-09-15T14:08:52.381Z,33.83
2022-09-15T14:11:26.409Z,51.30
2022-09-15T14:13:57.755Z,39.97
2022-09-15T14:16:36.583Z,38.73
2022-09-15T14:19:22.844Z,34.77
2022-09-15T14:21:53.832Z,43.90
2022-09-15T14:24:30.491Z,43.60
2022-09-15T14:27:03.468Z,29.33
2022-09-15T14:29:33.577Z,44.43
2022-09-15T14:32:04.083Z,32.43
2022-09-15T14:34:37.038Z,39.70
2022-09-15T14:37:08.967Z,41.30
2022-09-15T14:39:40.309Z,30.20
2022-09-15T14:42:21.681Z,38.20
2022-09-15T14:47:43.333Z,45.90
2022-09-15T14:50:16.694Z,46.67
2022-09-15T14:52:48.262Z,45.90
2022-09-15T14:55:23.098Z,47.47
2022-09-15T14:57:57.924Z,47.13
2022-09-15T15:00:30.719Z,52.50
2022-09-15T15:03:14.855Z,50.03
2022-09-15T15:05:54.692Z,46.17
2022-09-15T15:08:38.342Z,34.83
2022-09-15T15:11:10.788Z,43.63
2022-09-15T15:13:42.114Z,36.50
2022-09-15T15:16:19.149Z,49.63
2022-09-15T15:18:48.178Z,50.63
2022-09-15T15:21:37.165Z,53.70
2022-09-15T15:24:23.910Z,37.23
2022-09-15T15:26:52.900Z,46.80
2022-09-15T15:29:42.700Z,40.87
2022-09-15T15:32:17.311Z,43.40
2022-09-15T15:34:53.515Z,51.73
2022-09-15T15:37:27.745Z,41.23
2022-09-15T15:39:57.453Z,35.57
2022-09-15T15:42:28.503Z,44.80
2022-09-15T15:45:01.869Z,39.23
2022-09-15T15:47:33.362Z,46.80
2022-09-15T15:50:14.456Z,42.57
2022-09-15T15:52:44.002Z,39.83
2022-09-15T15:55:15.682Z,30.83
2022-09-15T15:57:45.176Z,33.20
2022-09-15T16:00:21.785Z,27.23
2022-09-15T16:02:52.243Z,41.93
2022-09-15T16:05:22.157Z,45.67
2022-09-15T16:07:53.463Z,37.13
2022-09-15T16:10:24.094Z,38.23
2022-09-15T16:12:52.447Z,32.83
2022-09-15T16:15:22.719Z,35.83
2022-09-15T16:17:52.442Z,35.07
2022-09-15T16:20:20.813Z,33.00
2022-09-15T16:22:49.218Z,35.50
2022-09-15T16:25:22.239Z,37.50
2022-09-15T16:27:50.630Z,37.50
2022-09-15T16:30:18.891Z,27.43
2022-09-15T16:32:47.226Z,39.20
2022-09-15T16:35:28.019Z,37.77
2022-09-15T16:37:56.356Z,37.47
2022-09-15T16:40:24.728Z,43.57
2022-09-15T16:42:53.472Z,50.03
2022-09-15T16:45:27.733Z,31.40
2022-09-15T16:47:56.089Z,46.50
2022-09-15T16:50:25.963Z,38.70
2022-09-15T16:52:54.823Z,34.17
2022-09-15T16:55:32.957Z,42.53
2022-09-15T16:58:01.353Z,40.80
2022-09-15T17:00:30.344Z,28.90
2022-09-15T17:02:58.926Z,52.87
2022-09-15T17:05:31.261Z,70.43
2022-09-15T17:08:00.054Z,56.03
2022-09-15T17:10:28.432Z,40.70
2022-09-15T17:12:57.121Z,96.50
2022-09-15T17:15:28.498Z,46.83
2022-09-15T17:17:57.687Z,60.57
2022-09-15T17:20:28.071Z,43.03
2022-09-15T17:22:57.411Z,40.10
2022-09-15T17:25:29.253Z,127.40
2022-09-15T17:27:59.393Z,46.07
2022-09-15T17:30:29.282Z,60.57
2022-09-15T17:33:04.918Z,42.23
2022-09-15T17:35:36.260Z,129.57
2022-09-15T17:38:06.514Z,127.33
2022-09-15T17:40:35.838Z,54.77
2022-09-15T17:43:05.000Z,165.93
2022-09-15T17:45:34.779Z,124.33
2022-09-15T17:48:04.005Z,88.13
2022-09-15T17:50:35.754Z,88.90
2022-09-15T17:53:04.279Z,63.13
2022-09-15T17:55:34.089Z,88.07
2022-09-15T17:58:04.348Z,31.63
2022-09-15T18:00:35.483Z,26.73
2022-09-15T18:03:06.324Z,17.40
2022-09-15T18:05:38.353Z,68.80
2022-09-15T18:08:07.298Z,16.03
2022-09-15T18:10:37.200Z,12.03
2022-09-15T18:13:07.563Z,11.60
2022-09-15T18:15:36.405Z,11.27
2022-09-15T18:18:08.655Z,9.57
2022-09-15T18:20:40.312Z,11.50
2022-09-15T18:23:11.235Z,14.90
2022-09-15T18:25:39.532Z,19.03
2022-09-15T18:28:08.080Z,19.83
2022-09-15T18:30:40.608Z,19.10
2022-09-15T18:33:09.835Z,11.53
2022-09-15T18:35:41.155Z,15.10
2022-09-15T18:38:10.348Z,10.90
2022-09-15T18:40:39.096Z,7.80
2022-09-15T18:43:07.400Z,4.47
2022-09-15T18:45:35.640Z,11.80
2022-09-15T18:48:03.990Z,6.90
2022-09-15T18:50:32.892Z,9.20
2022-09-15T18:53:02.671Z,14.20
2022-09-15T18:55:31.028Z,13.33
2022-09-15T18:58:01.087Z,10.67
2022-09-15T19:00:30.079Z,13.33
2022-09-15T19:02:59.166Z,9.20
2022-09-15T19:05:28.387Z,15.87
2022-09-15T19:07:56.915Z,15.93
2022-09-15T19:10:27.671Z,18.47
2022-09-15T19:12:56.285Z,12.30
2022-09-15T19:15:24.763Z,13.73
2022-09-15T19:17:53.332Z,21.27
2022-09-15T19:20:21.751Z,12.17
2022-09-15T19:22:51.619Z,17.90
2022-09-15T19:25:20.461Z,18.70
2022-09-15T19:27:50.287Z,19.60
2022-09-15T19:30:18.732Z,15.57
2022-09-15T19:32:47.067Z,17.53
2022-09-15T19:35:15.573Z,12.27
2022-09-15T19:37:44.216Z,19.33
2022-09-15T19:40:14.996Z,8.97
2022-09-15T19:42:44.866Z,9.63
2022-09-15T19:45:15.239Z,13.20
2022-09-15T19:47:43.563Z,23.87
2022-09-15T19:50:13.089Z,9.60
2022-09-15T19:52:41.521Z,14.23
2022-09-15T19:55:12.044Z,8.97
2022-09-15T19:57:41.604Z,7.67
2022-09-15T20:00:12.393Z,4.93
2022-09-15T20:02:42.188Z,9.63
2022-09-15T20:07:58.154Z,7.93
2022-09-15T20:10:26.566Z,7.07
2022-09-15T20:12:54.825Z,7.60
2022-09-15T20:15:23.120Z,13.10
2022-09-15T20:17:52.901Z,12.30
2022-09-15T20:20:21.513Z,7.13
2022-09-15T20:22:49.804Z,8.17
2022-09-15T20:25:18.372Z,9.60
2022-09-15T20:27:47.663Z,8.43
2022-09-15T20:30:15.967Z,9.77
2022-09-15T20:32:44.165Z,6.40
2022-09-15T20:35:14.860Z,4.90
2022-09-15T20:37:43.381Z,10.80
2022-09-15T20:40:11.848Z,16.43
2022-09-15T20:42:40.369Z,11.27
2022-09-15T20:45:10.376Z,10.87
2022-09-15T20:47:38.891Z,8.90
2022-09-15T20:50:07.879Z,10.37
2022-09-15T20:52:38.509Z,7.87
2022-09-15T20:55:07.817Z,6.07
2022-09-15T20:57:36.470Z,8.30
2022-09-15T21:00:07.177Z,6.77
2022-09-15T21:02:35.702Z,8.10
2022-09-15T21:05:04.140Z,10.00
2022-09-15T21:07:32.780Z,7.90
2022-09-15T21:10:02.554Z,7.80
2022-09-15T21:12:31.630Z,9.30
2022-09-15T21:15:01.568Z,10.20
2022-09-15T21:17:31.687Z,13.10
2022-09-15T21:20:04.081Z,5.23
2022-09-15T21:22:34.752Z,4.80
2022-09-15T21:25:05.813Z,8.43
2022-09-15T21:27:34.159Z,6.67
2022-09-15T21:30:02.484Z,7.73
2022-09-15T21:32:31.185Z,10.10
2022-09-15T21:35:00.151Z,4.97
2022-09-15T21:37:28.481Z,7.73
2022-09-15T21:39:56.975Z,11.83
2022-09-15T21:42:27.087Z,5.83
2022-09-15T21:44:55.673Z,4.77
2022-09-15T21:47:24.019Z,4.23
2022-09-15T21:49:52.807Z,5.97
2022-09-15T21:52:21.650Z,4.57
2022-09-15T21:54:49.919Z,7.67
2022-09-15T21:57:18.305Z,6.30
2022-09-15T21:59:48.031Z,7.67
2022-09-15T22:02:17.389Z,3.57
2022-09-15T22:04:45.928Z,5.83
2022-09-15T22:07:15.249Z,7.23
2022-09-15T22:09:43.572Z,5.53
2022-09-15T22:12:11.836Z,5.17
2022-09-15T22:14:40.151Z,6.03
2022-09-15T22:17:09.759Z,5.90
2022-09-15T22:19:38.083Z,8.07
2022-09-15T22:22:06.598Z,5.70
2022-09-15T22:24:34.922Z,8.97
2022-09-15T22:27:03.309Z,6.90
2022-09-15T22:29:31.590Z,6.13
2022-09-15T22:31:59.940Z,10.03
2022-09-15T22:34:29.694Z,6.50
2022-09-15T22:36:57.923Z,7.63
2022-09-15T22:39:43.923Z,6.90
2022-09-15T22:42:14.754Z,7.43
2022-09-15T22:44:42.998Z,5.27
2022-09-15T22:47:11.332Z,7.87
2022-09-15T22:49:41.057Z,10.00
2022-09-15T22:52:09.557Z,5.47
2022-09-15T22:54:37.968Z,7.70
2022-09-15T22:57:06.893Z,8.13
2022-09-15T22:59:35.324Z,8.10
2022-09-15T23:02:03.684Z,6.17
2022-09-15T23:04:32.012Z,7.00
2022-09-15T23:07:01.642Z,7.50
2022-09-15T23:09:29.999Z,5.27
2022-09-15T23:11:58.421Z,7.57
2022-09-15T23:14:26.891Z,7.30
2022-09-15T23:16:55.230Z,4.80
2022-09-15T23:19:23.719Z,5.63
2022-09-15T23:21:52.265Z,5.30
2022-09-15T23:24:22.348Z,3.33
2022-09-15T23:26:50.782Z,4.20
2022-09-15T23:29:19.079Z,7.00
2022-09-15T23:31:47.583Z,7.77
2022-09-15T23:34:16.007Z,8.13
2022-09-15T23:36:44.343Z,7.60
2022-09-15T23:39:12.642Z,4.03
2022-09-15T23:41:42.389Z,3.90
2022-09-15T23:44:10.790Z,4.70
2022-09-15T23:46:39.125Z,7.30
2022-09-15T23:49:07.535Z,8.60
2022-09-15T23:51:36.051Z,8.57
2022-09-15T23:54:04.757Z,7.00
2022-09-15T23:56:33.783Z,4.60
2022-09-15T23:59:03.492Z,7.23
